Impacts METAR Board
IDs:

KSAN - San Diego Intl Arpt, CA, US

Updated at: 1900 UTC 12 Dec 2018
Potential Impact None Slight Moderate High
Time 12/07Z 12/08Z 12/09Z 12/10Z 12/11Z 12/12Z 12/13Z 12/14Z 12/15Z 12/16Z 12/17Z 12/18Z 12/19Z
Temp58 57 58 55 54 55 54 55 55 55 60 61 63
Dewpt51 52 52 51 50 50 50 49 48 49 49 49 50
Altim30.10 30.11 30.09 30.11 30.11 30.10 30.11 30.10 30.11 30.14 30.15 30.15 30.15
VIS10 10 10 10 10 9 9 10 10 10 10 10 10
CIG-- -- -- -- 19 -- -- -- 250 250 -- 250 --
CoverFEWSCTSCTFEWBKNFEWFEWSCTBKNBKNSCTBKNSCT
FltCatVFRVFRVFRVFRMVFRVFRVFRVFRVFRVFRVFRVFRVFR
WX--------------------------
WDir001103400001301000100190170
WSpd0 0 5 3 0 0 0 3 3 0 4 4 5
WGst-- -- -- -- -- -- -- -- -- -- -- -- --
Raw hourly METARs
KSAN 120651Z 00000KT 10SM FEW020 14/11 A3010 RMK AO2 SLP193 T01440106
KSAN 120751Z 00000KT 10SM SCT026 14/11 A3011 RMK AO2 SLP196 T01390111 401830139
KSAN 120851Z 11005KT 10SM SCT026 14/11 A3009 RMK AO2 SLP189 T01440111 58003
KSAN 120951Z 34003KT 10SM FEW026 13/11 A3011 RMK AO2 SLP197 T01280106
KSAN 121059Z 00000KT 10SM BKN019 12/10 A3011 RMK AO2 T01220100
KSAN 121151Z 00000KT 9SM FEW018 13/10 A3010 RMK AO2 SLP190 T01280100 10144 20117 50002
KSAN 121251Z 00000KT 9SM FEW018 12/10 A3011 RMK AO2 SLP194 T01220100
KSAN 121351Z 13003KT 10SM FEW018 SCT250 13/09 A3010 RMK AO2 SLP193 T01280094
KSAN 121451Z 10003KT 10SM SCT200 BKN250 13/09 A3011 RMK AO2 SLP194 T01280089 51004
KSAN 121551Z 00000KT 10SM SCT200 BKN250 13/09 A3014 RMK AO2 SLP207 T01280094
KSAN 121651Z 10004KT 10SM FEW025 FEW200 SCT250 16/09 A3015 RMK AO2 SLP209 T01560094
KSAN 121751Z 19004KT 10SM FEW025 SCT200 BKN250 16/09 A3015 RMK AO2 SLP210 T01610094 10161 20122 51016
KSAN 121851Z 17005KT 10SM FEW025 FEW200 SCT250 17/10 A3015 RMK AO2 SLP208 T01720100



Page loaded:  19:56 UTC  |   11:56 AM Pacific  |   12:56 PM Mountain  |   01:56 PM Central  |   02:56 PM Eastern

 

ADVISORIES

FORECASTS

FORECASTS

OBSERVATIONS

USER TOOLS

ABOUT US